Time;durP1;ratioP1;P1;durP2;ratioP2;P2;SDS_P1;SDS_P2;PMS_P1;PMS_P2;Temp;Humidity;BMP_temperature;BMP_pressure;BME280_temperature;BME280_humidity;BME280_pressure;Samples;Min_cycle;Max_cycle;Signal;HPM_P1;HPM_P2
2021/06/14 00:01:25;;;;;;;2.53;2.03;;;;;;;;;;5113332;28;20174;-82
2021/06/14 00:03:51;;;;;;;5.53;2.08;;;12.50;99.90;;;;;;5112388;28;20254;-82
2021/06/14 00:06:17;;;;;;;4.45;2.10;;;;;;;;;;5111936;28;20174;-83
2021/06/14 00:08:43;;;;;;;5.07;2.35;;;12.70;99.90;;;;;;5113282;28;20174;-82
2021/06/14 00:11:10;;;;;;;5.80;2.38;;;12.20;99.90;;;;;;5111932;28;20648;-83
2021/06/14 00:13:36;;;;;;;6.53;2.30;;;12.80;99.90;;;;;;5111759;28;20253;-83
2021/06/14 00:16:03;;;;;;;6.60;2.13;;;12.90;99.90;;;;;;5113057;28;20174;-82
2021/06/14 00:18:29;;;;;;;5.50;2.22;;;12.40;99.90;;;;;;5113258;28;20177;-82
2021/06/14 00:21:02;;;;;;;10.70;2.38;;;12.50;99.90;;;;;;5111780;28;20182;-84
2021/06/14 00:23:30;;;;;;;5.78;1.92;;;12.50;99.90;;;;;;5111923;28;20174;-82
2021/06/14 00:25:57;;;;;;;7.72;2.28;;;12.50;99.90;;;;;;5111578;28;20189;-83
2021/06/14 00:28:23;;;;;;;6.10;2.22;;;12.50;99.90;;;;;;5112087;28;20178;-81
2021/06/14 00:30:51;;;;;;;5.40;2.15;;;;;;;;;;5112974;28;20657;-82
2021/06/14 00:33:17;;;;;;;5.88;1.90;;;12.50;99.90;;;;;;5111987;28;20178;-81
2021/06/14 00:35:45;;;;;;;2.95;2.20;;;12.10;99.90;;;;;;5111751;28;20182;-82
2021/06/14 00:38:12;;;;;;;3.83;1.88;;;12.50;99.90;;;;;;5112978;28;20177;-83
2021/06/14 00:40:38;;;;;;;5.85;2.10;;;12.50;99.90;;;;;;5113217;28;20162;-82
2021/06/14 00:43:05;;;;;;;5.25;2.00;;;12.80;99.90;;;;;;5112598;28;20170;-82
2021/06/14 00:45:32;;;;;;;4.22;2.08;;;12.50;99.90;;;;;;5113275;28;20204;-82
2021/06/14 00:47:59;;;;;;;4.55;2.20;;;12.50;99.90;;;;;;5115918;28;20264;-84
2021/06/14 00:50:43;;;;;;;9.40;2.35;;;12.80;99.90;;;;;;5115468;28;20174;-82
2021/06/14 00:53:21;;;;;;;5.75;2.25;;;12.40;99.90;;;;;;5115416;28;20174;-82
2021/06/14 00:55:47;;;;;;;10.40;2.25;;;12.20;99.90;;;;;;5116918;28;20215;-82
2021/06/14 00:58:14;;;;;;;6.82;2.05;;;12.70;99.90;;;;;;5116019;28;20177;-82
2021/06/14 01:00:40;;;;;;;5.03;2.50;;;12.60;99.90;;;;;;5098646;28;20185;-82
2021/06/14 01:03:07;;;;;;;5.07;2.10;;;12.70;99.90;;;;;;5116233;28;20178;-82
2021/06/14 01:05:40;;;;;;;5.85;2.42;;;12.40;99.90;;;;;;5116612;28;20244;-82
2021/06/14 01:08:07;;;;;;;4.50;1.83;;;12.60;99.90;;;;;;5116168;28;20194;-82
2021/06/14 01:10:34;;;;;;;7.72;1.88;;;12.30;99.90;;;;;;5116442;28;20170;-82
2021/06/14 01:13:27;;;;;;;7.07;1.95;;;12.30;99.90;;;;;;5115013;28;20252;-84
2021/06/14 01:16:12;;;;;;;8.50;2.20;;;12.30;99.90;;;;;;5115563;28;20174;-82
2021/06/14 01:18:58;;;;;;;2.85;2.05;;;12.30;99.90;;;;;;5116620;28;20633;-82
2021/06/14 01:22:02;;;;;;;3.88;2.30;;;12.30;99.90;;;;;;5104671;28;20189;-82
2021/06/14 01:24:44;;;;;;;5.43;2.58;;;12.30;99.90;;;;;;5036525;28;20211;-82
2021/06/14 01:27:10;;;;;;;6.57;1.90;;;;;;;;;;5111112;28;20194;-82
2021/06/14 01:29:36;;;;;;;4.07;2.30;;;;;;;;;;5116413;27;20174;-82
2021/06/14 01:32:03;;;;;;;6.35;2.20;;;12.20;99.90;;;;;;5116299;28;20685;-83
2021/06/14 01:34:32;;;;;;;4.50;2.72;;;12.20;99.90;;;;;;5116333;28;20223;-83
2021/06/14 01:37:00;;;;;;;8.23;2.00;;;12.20;99.90;;;;;;5115471;28;20217;-82
2021/06/14 01:39:29;;;;;;;7.18;2.55;;;12.30;99.90;;;;;;5116081;28;20272;-82
2021/06/14 01:41:57;;;;;;;7.85;2.15;;;12.10;99.90;;;;;;5116150;28;20185;-82
2021/06/14 01:44:24;;;;;;;7.05;2.33;;;12.00;99.90;;;;;;5115537;28;20193;-82
2021/06/14 01:46:52;;;;;;;3.85;2.15;;;12.20;99.90;;;;;;5097751;28;20189;-82
2021/06/14 01:49:20;;;;;;;12.50;2.15;;;12.20;99.90;;;;;;5115656;28;20180;-82
2021/06/14 01:51:46;;;;;;;3.63;2.35;;;11.90;99.90;;;;;;5097373;28;20173;-82
2021/06/14 01:54:12;;;;;;;5.15;2.25;;;12.20;99.90;;;;;;5114025;28;20189;-83
2021/06/14 01:56:49;;;;;;;5.47;2.10;;;12.10;99.90;;;;;;5115800;28;20181;-83
2021/06/14 01:59:19;;;;;;;9.25;3.13;;;12.10;99.90;;;;;;5114480;28;20215;-81
2021/06/14 02:01:46;;;;;;;4.40;2.05;;;11.70;99.90;;;;;;5115219;28;20166;-82
2021/06/14 02:04:12;;;;;;;5.75;2.47;;;12.10;99.90;;;;;;5113664;28;20206;-82
2021/06/14 02:06:41;;;;;;;4.32;2.17;;;11.80;99.90;;;;;;5114660;28;20177;-81
2021/06/14 02:09:09;;;;;;;13.05;3.13;;;12.20;99.90;;;;;;5115230;28;20170;-83
2021/06/14 02:11:38;;;;;;;5.70;2.60;;;12.50;99.90;;;;;;5115479;28;20227;-82
2021/06/14 02:14:04;;;;;;;8.20;1.95;;;12.20;99.90;;;;;;5115629;28;20229;-83
2021/06/14 02:16:30;;;;;;;5.43;2.30;;;12.20;99.90;;;;;;5131332;27;20182;-82
2021/06/14 02:18:57;;;;;;;5.53;2.13;;;;;;;;;;5114179;28;20258;-82
2021/06/14 02:21:23;;;;;;;11.82;3.67;;;12.00;99.90;;;;;;5115263;28;20226;-82
2021/06/14 02:23:48;;;;;;;6.32;2.10;;;12.20;99.90;;;;;;5097026;28;20217;-82
2021/06/14 02:26:15;;;;;;;7.05;2.22;;;;;;;;;;5114680;28;20595;-82
2021/06/14 02:28:41;;;;;;;5.40;2.53;;;12.20;99.90;;;;;;5114945;28;20177;-81
2021/06/14 02:31:07;;;;;;;5.03;2.45;;;12.10;99.90;;;;;;5113511;28;20189;-81
2021/06/14 02:33:33;;;;;;;4.38;1.90;;;12.20;99.90;;;;;;5113473;28;20185;-82
2021/06/14 02:35:59;;;;;;;5.80;2.05;;;;;;;;;;5114781;28;20244;-81
2021/06/14 02:38:26;;;;;;;7.85;2.20;;;12.20;99.90;;;;;;5114664;28;20178;-82
2021/06/14 02:40:52;;;;;;;4.85;2.42;;;12.20;99.90;;;;;;5114345;28;20178;-81
2021/06/14 02:43:22;;;;;;;10.98;2.55;;;11.80;99.90;;;;;;5114300;28;20178;-82
2021/06/14 02:45:48;;;;;;;5.13;2.15;;;12.00;99.90;;;;;;5114325;28;20284;-81
2021/06/14 02:48:16;;;;;;;11.67;2.57;;;12.30;99.90;;;;;;5114209;28;20205;-84
2021/06/14 02:50:43;;;;;;;5.78;2.70;;;12.20;99.90;;;;;;5114105;28;20581;-80
2021/06/14 02:53:11;;;;;;;7.50;2.35;;;12.30;99.90;;;;;;5113148;28;20207;-81
2021/06/14 02:55:49;;;;;;;3.28;2.03;;;12.20;99.90;;;;;;5114390;28;20223;-81
2021/06/14 02:58:18;;;;;;;6.57;2.28;;;12.10;99.90;;;;;;5112858;28;20534;-82
2021/06/14 03:00:43;;;;;;;4.45;2.25;;;12.40;99.90;;;;;;5113678;28;20182;-82
2021/06/14 03:03:09;;;;;;;4.78;2.15;;;12.20;99.90;;;;;;5114387;28;20178;-82
2021/06/14 03:05:36;;;;;;;5.85;2.22;;;;;;;;;;5112512;28;20209;-82
2021/06/14 03:08:02;;;;;;;7.03;2.40;;;;;;;;;;5112941;28;20435;-82
2021/06/14 03:10:30;;;;;;;7.05;2.15;;;12.60;99.90;;;;;;5112103;28;20185;-82
2021/06/14 03:12:58;;;;;;;8.05;2.50;;;12.00;99.90;;;;;;5113173;28;20249;-81
2021/06/14 03:15:26;;;;;;;3.72;2.05;;;12.20;99.90;;;;;;5114092;28;20188;-81
2021/06/14 03:17:53;;;;;;;5.18;2.00;;;12.10;99.90;;;;;;5114408;28;20206;-82
2021/06/14 03:20:24;;;;;;;3.58;2.30;;;11.80;99.90;;;;;;5113846;28;20218;-82
2021/06/14 03:22:50;;;;;;;5.93;2.55;;;12.50;99.90;;;;;;5114480;28;20234;-82
2021/06/14 03:25:17;;;;;;;3.28;1.95;;;12.00;99.90;;;;;;5113124;28;20684;-83
2021/06/14 03:27:43;;;;;;;5.68;2.03;;;12.40;99.90;;;;;;5114843;28;20268;-82
2021/06/14 03:30:10;;;;;;;5.97;2.40;;;11.90;99.90;;;;;;5114246;28;20166;-82
2021/06/14 03:32:40;;;;;;;4.70;2.13;;;12.10;99.90;;;;;;5113834;28;20546;-81
2021/06/14 03:35:09;;;;;;;4.47;2.40;;;11.60;99.90;;;;;;5113891;28;20177;-81
2021/06/14 03:37:35;;;;;;;4.03;2.30;;;11.90;99.90;;;;;;5114406;28;20174;-81
2021/06/14 03:40:03;;;;;;;3.28;2.15;;;12.00;99.90;;;;;;5114056;28;20213;-81
2021/06/14 03:42:30;;;;;;;6.40;2.20;;;12.20;99.90;;;;;;5112103;28;20208;-83
2021/06/14 03:44:57;;;;;;;7.05;2.92;;;;;;;;;;5099811;28;20213;-81
2021/06/14 03:47:22;;;;;;;8.07;2.55;;;11.70;99.90;;;;;;5123641;28;20185;-81
2021/06/14 03:49:48;;;;;;;6.85;2.70;;;;;;;;;;5122645;28;20232;-82
2021/06/14 03:52:14;;;;;;;5.60;2.40;;;11.80;99.90;;;;;;5114351;28;20714;-81
2021/06/14 03:54:40;;;;;;;3.53;2.30;;;;;;;;;;5104965;28;20273;-81
2021/06/14 03:57:06;;;;;;;6.35;2.35;;;11.70;99.90;;;;;;5110866;28;20189;-81
2021/06/14 03:59:32;;;;;;;4.78;2.47;;;;;;;;;;5110608;28;20714;-81
2021/06/14 04:01:58;;;;;;;5.43;2.25;;;12.10;99.90;;;;;;5110994;28;20181;-81
2021/06/14 04:06:53;;;;;;;6.97;2.33;;;12.20;99.90;;;;;;5111817;28;20204;-82
2021/06/14 04:09:19;;;;;;;3.22;2.40;;;12.00;99.90;;;;;;5108706;28;20914;-81
2021/06/14 04:11:45;;;;;;;5.60;2.35;;;;;;;;;;5111107;28;20189;-82
2021/06/14 04:14:10;;;;;;;4.20;2.20;;;12.10;99.90;;;;;;5109148;28;20198;-82
2021/06/14 04:16:36;;;;;;;12.23;3.65;;;;;;;;;;5111044;28;20201;-82
2021/06/14 04:19:02;;;;;;;5.25;2.30;;;;;;;;;;5111335;28;20280;-82
2021/06/14 04:21:28;;;;;;;6.70;2.47;;;12.10;99.90;;;;;;5112187;28;20185;-83
2021/06/14 04:23:54;;;;;;;6.97;2.50;;;11.80;99.90;;;;;;5097832;28;20665;-82
2021/06/14 04:26:20;;;;;;;6.20;2.80;;;;;;;;;;5094172;28;20198;-82
2021/06/14 04:28:46;;;;;;;5.10;2.70;;;12.30;99.90;;;;;;5093837;28;20195;-84
2021/06/14 04:31:12;;;;;;;5.25;2.28;;;12.30;99.90;;;;;;5128223;27;20521;-82
2021/06/14 04:33:38;;;;;;;6.22;2.38;;;;;;;;;;5093898;28;20182;-82
2021/06/14 04:36:04;;;;;;;3.45;2.33;;;12.60;99.90;;;;;;5097950;28;20910;-83
2021/06/14 04:38:31;;;;;;;6.90;2.05;;;12.40;99.90;;;;;;5109475;28;20182;-83
2021/06/14 04:40:57;;;;;;;9.32;1.95;;;12.30;99.90;;;;;;5093194;28;20212;-83
2021/06/14 04:43:23;;;;;;;4.00;1.95;;;;;;;;;;5113392;28;20638;-84
2021/06/14 04:45:49;;;;;;;2.63;1.75;;;;;;;;;;5114711;28;20208;-84
2021/06/14 04:48:15;;;;;;;4.18;1.95;;;12.30;99.90;;;;;;5113635;28;20190;-84
2021/06/14 04:50:41;;;;;;;3.95;1.80;;;13.00;99.90;;;;;;5113346;28;20186;-84
2021/06/14 04:53:06;;;;;;;5.28;1.67;;;12.70;99.90;;;;;;5114383;28;20642;-84
2021/06/14 04:55:32;;;;;;;6.60;1.60;;;;;;;;;;5095895;28;20190;-83
2021/06/14 04:57:58;;;;;;;6.30;1.95;;;;;;;;;;5096758;28;20638;-83
2021/06/14 05:00:24;;;;;;;5.20;1.70;;;;;;;;;;5093526;28;20187;-84
2021/06/14 05:02:51;;;;;;;5.10;2.05;;;;;;;;;;5113655;28;20373;-83
2021/06/14 05:05:16;;;;;;;3.90;1.83;;;12.90;99.90;;;;;;5112596;28;20212;-83
2021/06/14 05:07:42;;;;;;;5.40;2.00;;;13.20;99.90;;;;;;5113912;28;20190;-83
2021/06/14 05:10:09;;;;;;;3.05;1.63;;;13.20;99.90;;;;;;5114110;28;20269;-82
2021/06/14 05:12:35;;;;;;;4.68;1.60;;;;;;;;;;5113132;28;20366;-83
2021/06/14 05:15:00;;;;;;;7.20;1.80;;;13.00;99.90;;;;;;5095615;28;20192;-83
2021/06/14 05:17:27;;;;;;;4.25;1.67;;;13.50;99.90;;;;;;5112224;28;20193;-85
2021/06/14 05:19:53;;;;;;;6.65;1.85;;;;;;;;;;5113558;28;20202;-84
2021/06/14 05:22:19;;;;;;;3.80;1.50;;;;;;;;;;5113788;28;20232;-84
2021/06/14 05:24:45;;;;;;;3.67;1.83;;;;;;;;;;5113871;28;20201;-83
2021/06/14 05:27:10;;;;;;;5.05;1.50;;;13.70;99.90;;;;;;5114375;28;20189;-82
2021/06/14 05:29:36;;;;;;;6.97;1.73;;;;;;;;;;5097233;28;20659;-83
2021/06/14 05:32:02;;;;;;;3.17;1.70;;;14.00;99.90;;;;;;5115534;28;20254;-83
2021/06/14 05:34:29;;;;;;;7.13;1.67;;;;;;;;;;5112576;28;20178;-83
2021/06/14 05:36:55;;;;;;;4.78;1.80;;;;;;;;;;5115118;28;20201;-83
2021/06/14 05:39:21;;;;;;;2.95;1.35;;;;;;;;;;5113891;28;20190;-83
2021/06/14 05:41:48;;;;;;;3.85;1.35;;;14.60;99.90;;;;;;5096592;28;20186;-82
2021/06/14 05:44:15;;;;;;;3.30;1.45;;;14.00;99.90;;;;;;5113769;28;20692;-83
2021/06/14 05:46:40;;;;;;;8.07;1.40;;;14.20;99.90;;;;;;5114612;28;20266;-82
2021/06/14 05:49:06;;;;;;;2.83;1.55;;;14.20;99.90;;;;;;5114621;28;20253;-82
2021/06/14 05:51:32;;;;;;;2.40;1.40;;;;;;;;;;5114489;28;20243;-83
2021/06/14 05:53:58;;;;;;;3.17;1.25;;;;;;;;;;5114828;28;20619;-81
2021/06/14 05:56:24;;;;;;;4.95;1.40;;;14.80;99.90;;;;;;5113148;28;20189;-82
2021/06/14 05:58:50;;;;;;;2.17;1.10;;;;;;;;;;5113764;28;20185;-83
2021/06/14 06:01:16;;;;;;;4.57;1.25;;;14.30;99.90;;;;;;5114577;28;20170;-83
2021/06/14 06:03:42;;;;;;;5.22;1.70;;;;;;;;;;5114128;28;20174;-83
2021/06/14 06:06:08;;;;;;;5.63;1.30;;;;;;;;;;5113307;28;20194;-83
2021/06/14 06:08:34;;;;;;;2.28;1.00;;;;;;;;;;5114209;28;20185;-83
2021/06/14 06:11:00;;;;;;;2.63;1.42;;;;;;;;;;5112616;28;20182;-82
2021/06/14 06:13:26;;;;;;;3.08;1.65;;;;;;;;;;5113543;28;20251;-83
2021/06/14 06:15:52;;;;;;;4.63;1.42;;;;;;;;;;5112798;28;20204;-83
2021/06/14 06:18:18;;;;;;;2.17;1.30;;;;;;;;;;5113085;28;20645;-83
2021/06/14 06:20:44;;;;;;;5.70;1.00;;;15.00;99.90;;;;;;5112646;28;20185;-83
2021/06/14 06:23:10;;;;;;;3.72;1.30;;;;;;;;;;5114146;28;20527;-82
2021/06/14 06:25:36;;;;;;;2.42;1.30;;;15.00;99.90;;;;;;5113902;28;20209;-83
2021/06/14 06:28:02;;;;;;;1.55;0.93;;;;;;;;;;5113927;28;20209;-83
2021/06/14 06:30:29;;;;;;;6.93;1.60;;;15.10;99.90;;;;;;5112719;28;20174;-83
2021/06/14 06:32:55;;;;;;;6.75;1.20;;;15.10;99.90;;;;;;5112461;28;20193;-83
2021/06/14 06:35:22;;;;;;;2.50;1.17;;;14.80;99.90;;;;;;5113693;28;20174;-82
2021/06/14 06:37:49;;;;;;;1.50;0.98;;;15.40;99.90;;;;;;5113641;28;20212;-83
2021/06/14 06:40:16;;;;;;;3.13;1.45;;;15.20;99.90;;;;;;5113442;28;20806;-83
2021/06/14 06:42:43;;;;;;;4.45;1.45;;;15.50;99.90;;;;;;5113054;28;20574;-82
2021/06/14 06:45:10;;;;;;;4.35;1.30;;;14.80;99.90;;;;;;5113665;28;20202;-83
2021/06/14 06:47:36;;;;;;;4.32;1.13;;;;;;;;;;5112253;28;20182;-84
2021/06/14 06:50:04;;;;;;;3.58;1.23;;;15.30;99.90;;;;;;5112414;28;20178;-83
2021/06/14 06:52:30;;;;;;;2.28;1.17;;;15.70;99.90;;;;;;5113096;28;20181;-83
2021/06/14 06:54:56;;;;;;;2.00;1.00;;;;;;;;;;5111971;28;20579;-84
2021/06/14 06:57:25;;;;;;;3.20;1.48;;;;;;;;;;5112382;28;20217;-83
2021/06/14 06:59:50;;;;;;;2.40;0.95;;;15.30;99.90;;;;;;5113259;28;20170;-84
2021/06/14 07:02:16;;;;;;;1.48;1.23;;;;;;;;;;5113871;28;20189;-84
2021/06/14 07:04:42;;;;;;;1.60;1.00;;;;;;;;;;5112613;28;20233;-83
2021/06/14 07:07:08;;;;;;;2.85;1.20;;;15.40;99.90;;;;;;5113227;28;20182;-83
2021/06/14 07:09:34;;;;;;;1.92;0.93;;;;;;;;;;5113340;28;20173;-84
2021/06/14 07:12:00;;;;;;;2.25;1.00;;;;;;;;;;5112840;28;20254;-83
2021/06/14 07:14:26;;;;;;;3.40;0.90;;;;;;;;;;5113162;28;20249;-84
2021/06/14 07:16:52;;;;;;;1.30;1.10;;;;;;;;;;5112330;28;20678;-84
2021/06/14 07:19:18;;;;;;;6.22;1.10;;;;;;;;;;5112429;28;20204;-84
2021/06/14 07:21:44;;;;;;;1.50;1.08;;;;;;;;;;5111152;28;20535;-84
2021/06/14 07:24:10;;;;;;;4.30;1.13;;;;;;;;;;5111370;28;20205;-84
2021/06/14 07:26:37;;;;;;;2.17;0.93;;;15.70;99.90;;;;;;5112658;28;20181;-83
2021/06/14 07:29:04;;;;;;;1.90;1.10;;;16.30;99.90;;;;;;5112050;28;20571;-83
2021/06/14 07:31:30;;;;;;;3.33;0.98;;;16.00;99.90;;;;;;5112234;28;20544;-83
2021/06/14 07:33:58;;;;;;;2.58;0.98;;;;;;;;;;5112487;28;20239;-85
2021/06/14 07:36:25;;;;;;;4.97;1.10;;;16.20;99.90;;;;;;5110409;28;20182;-83
2021/06/14 07:38:51;;;;;;;1.33;1.00;;;16.40;99.90;;;;;;5111797;28;20268;-83
2021/06/14 07:41:17;;;;;;;2.50;0.93;;;16.10;99.90;;;;;;5112197;28;20174;-83
2021/06/14 07:43:43;;;;;;;3.92;1.30;;;;;;;;;;5112133;28;20174;-84
2021/06/14 07:46:09;;;;;;;3.53;1.00;;;;;;;;;;5093831;28;20675;-83
2021/06/14 07:48:35;;;;;;;2.92;1.00;;;;;;;;;;5112426;28;20268;-83
2021/06/14 07:51:03;;;;;;;4.78;0.98;;;16.30;99.90;;;;;;5114070;28;20185;-83
2021/06/14 07:53:28;;;;;;;2.67;1.10;;;16.50;99.90;;;;;;5112246;28;20643;-83
2021/06/14 07:55:56;;;;;;;1.58;1.08;;;;;;;;;;5113178;28;20193;-83
2021/06/14 07:58:22;;;;;;;0.82;0.82;;;16.60;99.90;;;;;;5116416;28;20181;-83
2021/06/14 08:00:47;;;;;;;1.83;0.95;;;17.20;99.90;;;;;;5116099;28;20253;-83
2021/06/14 08:03:13;;;;;;;2.22;1.13;;;;;;;;;;5099519;28;20621;-83
2021/06/14 08:05:41;;;;;;;3.25;1.00;;;16.60;99.90;;;;;;5117409;28;20233;-82
2021/06/14 08:08:06;;;;;;;5.63;1.40;;;16.80;99.90;;;;;;5117287;28;20181;-84
2021/06/14 08:10:33;;;;;;;2.17;0.88;;;;;;;;;;5117183;28;20535;-83
2021/06/14 08:12:59;;;;;;;1.20;1.00;;;17.50;99.90;;;;;;5115471;28;20641;-83
2021/06/14 08:15:27;;;;;;;1.30;0.90;;;17.70;99.90;;;;;;5099120;28;20262;-83
2021/06/14 08:17:58;;;;;;;2.00;0.98;;;16.90;99.90;;;;;;5117345;28;20181;-83
2021/06/14 08:21:01;;;;;;;1.63;1.00;;;17.00;99.90;;;;;;5117367;28;20207;-83
2021/06/14 08:25:37;;;;;;;5.20;1.08;;;17.30;99.20;;;;;;5117014;28;20201;-83
2021/06/14 08:28:04;;;;;;;3.28;1.20;;;17.80;99.90;;;;;;5115646;28;20185;-83
2021/06/14 08:30:30;;;;;;;1.63;1.05;;;17.70;99.90;;;;;;5117184;28;20227;-83
2021/06/14 08:32:58;;;;;;;1.42;0.80;;;17.40;99.90;;;;;;5098149;28;20185;-83
2021/06/14 08:35:25;;;;;;;4.18;1.20;;;17.40;99.90;;;;;;5116703;28;20174;-83
2021/06/14 08:37:53;;;;;;;6.90;1.35;;;17.70;99.90;;;;;;5098373;28;20677;-83
2021/06/14 08:40:22;;;;;;;1.70;0.80;;;17.70;96.50;;;;;;5116672;28;20634;-83
2021/06/14 08:42:48;;;;;;;3.20;1.25;;;;;;;;;;5115341;28;20634;-85
2021/06/14 08:45:17;;;;;;;2.85;1.13;;;17.50;99.90;;;;;;5116547;28;20205;-83
2021/06/14 08:47:45;;;;;;;1.38;0.80;;;18.30;99.90;;;;;;5116806;28;20188;-83
2021/06/14 08:50:15;;;;;;;2.25;0.93;;;18.20;99.90;;;;;;5115121;28;20219;-83
2021/06/14 08:52:41;;;;;;;1.95;0.80;;;;;;;;;;5115163;28;20272;-83
2021/06/14 08:55:10;;;;;;;1.45;0.80;;;18.00;99.90;;;;;;5115079;28;20185;-83
2021/06/14 08:57:36;;;;;;;1.63;0.70;;;18.20;94.80;;;;;;5116452;28;20253;-83
2021/06/14 09:00:08;;;;;;;4.13;1.00;;;17.90;99.90;;;;;;5097977;28;20565;-83
2021/06/14 09:02:34;;;;;;;2.67;1.10;;;17.90;99.90;;;;;;5116509;28;20200;-83
2021/06/14 09:05:00;;;;;;;2.00;1.15;;;;;;;;;;5114381;28;20673;-83
2021/06/14 09:07:25;;;;;;;3.17;0.90;;;18.10;99.90;;;;;;5116258;28;20231;-82
2021/06/14 09:09:51;;;;;;;1.63;0.80;;;;;;;;;;5114927;28;20182;-84
2021/06/14 09:12:17;;;;;;;3.60;0.90;;;19.00;99.90;;;;;;5114871;28;20226;-82
2021/06/14 09:14:45;;;;;;;1.13;0.77;;;;;;;;;;5116281;28;20626;-83
2021/06/14 09:17:14;;;;;;;3.38;0.90;;;18.70;99.90;;;;;;5114561;28;20181;-84
2021/06/14 09:19:55;;;;;;;2.08;0.90;;;19.30;99.90;;;;;;5116147;28;20258;-83
2021/06/14 09:22:26;;;;;;;2.35;0.98;;;19.00;99.90;;;;;;5116107;28;20641;-83
2021/06/14 09:25:14;;;;;;;1.90;1.00;;;18.60;92.80;;;;;;5115752;28;20197;-85
2021/06/14 09:27:50;;;;;;;7.32;0.95;;;19.00;99.90;;;;;;5114788;28;20200;-83
2021/06/14 09:30:23;;;;;;;17.58;1.20;;;18.80;92.80;;;;;;5115328;28;20245;-83
2021/06/14 09:32:56;;;;;;;2.80;1.15;;;19.30;91.90;;;;;;5115603;28;20199;-83
2021/06/14 09:35:25;;;;;;;3.88;0.90;;;18.90;95.70;;;;;;5113292;28;20277;-84
2021/06/14 09:38:02;;;;;;;4.00;1.35;;;19.50;94.20;;;;;;5114500;28;20336;-84
2021/06/14 09:40:40;;;;;;;1.48;0.90;;;19.40;96.40;;;;;;5114499;28;20162;-84
2021/06/14 09:43:08;;;;;;;3.00;1.10;;;19.00;93.50;;;;;;5112657;28;20173;-84
2021/06/14 09:45:40;;;;;;;1.55;0.60;;;20.00;99.40;;;;;;5114397;28;20197;-84
2021/06/14 09:48:21;;;;;;;2.78;1.13;;;19.50;93.20;;;;;;5114654;28;20206;-83
2021/06/14 09:50:49;;;;;;;2.58;0.90;;;19.60;90.50;;;;;;5114469;28;20169;-83
2021/06/14 09:53:17;;;;;;;3.78;1.00;;;19.80;99.90;;;;;;5115187;28;20170;-83
2021/06/14 09:55:44;;;;;;;5.22;1.65;;;19.80;87.50;;;;;;5115211;28;20197;-83
2021/06/14 09:58:15;;;;;;;8.07;1.00;;;19.60;98.20;;;;;;5113053;28;20179;-83
2021/06/14 10:00:58;;;;;;;1.85;0.70;;;20.40;98.70;;;;;;5114724;28;20205;-82
2021/06/14 10:03:27;;;;;;;0.73;0.55;;;19.70;95.40;;;;;;5114691;28;20162;-84
2021/06/14 10:05:54;;;;;;;4.03;0.60;;;20.10;96.20;;;;;;5113216;28;20212;-84
2021/06/14 10:08:29;;;;;;;1.90;1.00;;;20.00;96.70;;;;;;5112974;28;20223;-83
2021/06/14 10:11:17;;;;;;;0.75;0.70;;;19.50;86.60;;;;;;5114196;28;20558;-84
2021/06/14 10:13:47;;;;;;;2.33;0.65;;;19.60;95.80;;;;;;5113238;28;20553;-84
2021/06/14 10:16:23;;;;;;;2.20;0.73;;;19.50;94.50;;;;;;5114274;28;20614;-84
2021/06/14 10:18:55;;;;;;;13.35;1.77;;;20.00;83.40;;;;;;5113858;28;20165;-84
2021/06/14 10:21:29;;;;;;;3.25;1.00;;;20.20;95.10;;;;;;5113966;28;20178;-84
2021/06/14 10:23:58;;;;;;;3.25;1.00;;;19.60;94.40;;;;;;5114212;28;20181;-84
2021/06/14 10:26:26;;;;;;;1.13;0.90;;;20.50;96.60;;;;;;5113222;28;20185;-84
2021/06/14 10:28:52;;;;;;;1.70;0.75;;;20.00;89.10;;;;;;5113420;28;20185;-84
2021/06/14 10:31:19;;;;;;;4.63;0.88;;;20.60;94.50;;;;;;5113636;28;20174;-84
2021/06/14 10:33:48;;;;;;;2.13;1.00;;;20.20;78.80;;;;;;5112372;28;20301;-84
2021/06/14 10:36:15;;;;;;;3.20;0.93;;;20.00;94.50;;;;;;5113300;28;20638;-84
2021/06/14 10:38:46;;;;;;;3.22;0.85;;;20.60;95.90;;;;;;5113854;28;20197;-86
2021/06/14 10:41:12;;;;;;;9.43;1.52;;;20.10;95.50;;;;;;5113477;28;20201;-84
2021/06/14 10:43:39;;;;;;;5.70;0.90;;;21.00;89.80;;;;;;5114066;28;20181;-85
2021/06/14 10:46:05;;;;;;;8.95;2.97;;;;;;;;;;5112707;28;20217;-84
2021/06/14 10:48:33;;;;;;;1.25;0.80;;;20.80;96.10;;;;;;5113007;28;20213;-83
2021/06/14 10:51:01;;;;;;;8.73;0.80;;;21.00;81.30;;;;;;5114438;28;20174;-83
2021/06/14 10:53:32;;;;;;;1.80;0.90;;;20.60;93.30;;;;;;5114288;28;20174;-83
2021/06/14 10:56:01;;;;;;;25.13;3.38;;;20.50;90.60;;;;;;5114681;28;20165;-82
2021/06/14 10:58:29;;;;;;;1.65;0.68;;;;;;;;;;5114143;28;20283;-83
2021/06/14 11:01:16;;;;;;;1.33;0.80;;;20.20;93.50;;;;;;5113163;28;20174;-83
2021/06/14 11:03:45;;;;;;;2.80;0.80;;;20.50;93.30;;;;;;5114067;28;20189;-84
2021/06/14 11:06:29;;;;;;;0.73;0.70;;;20.60;94.10;;;;;;5112562;28;20387;-83
2021/06/14 11:09:05;;;;;;;2.08;0.80;;;20.50;93.70;;;;;;5114027;28;20203;-83
2021/06/14 11:11:46;;;;;;;20.40;2.65;;;20.90;77.90;;;;;;5112677;28;20189;-84
2021/06/14 11:14:13;;;;;;;3.40;0.70;;;;;;;;;;5112087;28;20538;-83
2021/06/14 11:16:39;;;;;;;2.35;0.88;;;21.00;77.70;;;;;;5112133;28;20188;-83
2021/06/14 11:19:08;;;;;;;3.00;0.90;;;21.10;78.90;;;;;;5113106;28;20170;-85
2021/06/14 11:21:34;;;;;;;3.05;0.95;;;;;;;;;;5112678;28;20213;-83
2021/06/14 11:24:11;;;;;;;1.33;0.63;;;20.40;93.00;;;;;;5112052;28;20533;-83
2021/06/14 11:26:38;;;;;;;1.52;1.00;;;20.90;93.50;;;;;;5113328;28;20218;-83
2021/06/14 11:29:17;;;;;;;6.65;0.73;;;21.10;93.00;;;;;;5113705;28;20186;-83
2021/06/14 11:32:03;;;;;;;4.03;1.00;;;20.50;93.60;;;;;;5111121;28;20237;-84
2021/06/14 11:34:42;;;;;;;3.58;0.88;;;21.30;93.30;;;;;;5110383;28;20188;-84
2021/06/14 11:37:09;;;;;;;4.57;0.85;;;21.70;93.50;;;;;;5110286;28;20173;-84
2021/06/14 11:39:35;;;;;;;0.93;0.70;;;20.90;91.70;;;;;;5111822;28;20231;-83
2021/06/14 11:42:20;;;;;;;2.00;0.60;;;21.30;75.00;;;;;;5111597;28;20639;-84
2021/06/14 11:44:57;;;;;;;1.55;0.70;;;21.80;92.00;;;;;;5111473;28;20231;-84
2021/06/14 11:47:27;;;;;;;2.30;0.82;;;21.30;91.00;;;;;;5109382;28;20177;-84
2021/06/14 11:50:00;;;;;;;3.55;1.05;;;21.10;74.10;;;;;;5111632;28;20181;-84
2021/06/14 11:52:31;;;;;;;1.73;0.57;;;20.70;90.90;;;;;;5112963;28;20165;-84
2021/06/14 11:55:03;;;;;;;4.65;1.27;;;21.40;79.50;;;;;;5110559;28;20173;-83
2021/06/14 11:57:36;;;;;;;1.52;0.70;;;21.30;90.30;;;;;;5113146;28;20235;-83
2021/06/14 12:00:02;;;;;;;3.47;0.80;;;;;;;;;;5110683;28;20173;-83
2021/06/14 12:02:29;;;;;;;3.05;0.70;;;21.10;75.50;;;;;;5112618;28;20185;-83
2021/06/14 12:04:59;;;;;;;1.45;0.70;;;21.90;90.80;;;;;;5112500;28;20197;-83
2021/06/14 12:07:38;;;;;;;1.80;0.85;;;21.30;70.30;;;;;;5112576;28;20178;-83
2021/06/14 12:10:13;;;;;;;1.88;0.70;;;21.30;90.50;;;;;;5110859;28;20524;-83
2021/06/14 12:12:39;;;;;;;1.05;0.50;;;;;;;;;;5109980;28;20269;-84
2021/06/14 12:15:08;;;;;;;0.70;0.50;;;21.40;69.10;;;;;;5094876;28;20182;-84
2021/06/14 12:17:36;;;;;;;1.13;0.57;;;21.20;70.40;;;;;;5112128;28;20201;-83
2021/06/14 12:20:08;;;;;;;2.45;0.80;;;21.40;70.20;;;;;;5112724;28;20174;-84
2021/06/14 12:22:34;;;;;;;1.08;0.82;;;21.00;90.20;;;;;;5112126;28;20631;-84
2021/06/14 12:25:11;;;;;;;2.88;0.65;;;21.50;90.00;;;;;;5112344;28;20204;-84
2021/06/14 12:27:38;;;;;;;3.00;0.65;;;;;;;;;;5112684;28;20178;-83
2021/06/14 12:30:07;;;;;;;1.17;0.88;;;21.60;88.20;;;;;;5113183;28;20170;-84
2021/06/14 12:32:33;;;;;;;1.00;0.70;;;22.00;89.40;;;;;;5111989;28;20178;-84
2021/06/14 12:35:00;;;;;;;1.23;0.77;;;22.00;66.10;;;;;;5095032;28;20223;-84
2021/06/14 12:37:27;;;;;;;1.23;0.80;;;;;;;;;;5113164;28;20182;-84
2021/06/14 12:40:00;;;;;;;3.83;0.73;;;22.00;68.90;;;;;;5113039;28;20200;-84
2021/06/14 12:42:27;;;;;;;1.00;0.50;;;21.70;68.30;;;;;;5106931;28;20242;-84
2021/06/14 12:45:09;;;;;;;0.73;0.70;;;21.70;73.30;;;;;;5115109;28;20200;-84
2021/06/14 12:47:44;;;;;;;2.28;0.70;;;21.60;67.10;;;;;;5114799;28;20180;-84
2021/06/14 12:50:14;;;;;;;4.47;0.77;;;21.10;71.90;;;;;;5116158;28;20676;-84
2021/06/14 12:52:40;;;;;;;1.35;0.93;;;;;;;;;;5113576;28;20170;-83
2021/06/14 12:55:15;;;;;;;1.60;1.23;;;21.90;66.80;;;;;;5092452;28;20214;-84
2021/06/14 12:57:42;;;;;;;7.80;0.90;;;;;;;;;;5096550;28;20177;-84
2021/06/14 13:00:26;;;;;;;9.38;0.80;;;21.60;83.90;;;;;;5114832;28;20177;-84
2021/06/14 13:02:54;;;;;;;0.80;0.50;;;21.70;86.80;;;;;;5114089;28;20190;-84
2021/06/14 13:05:24;;;;;;;1.25;0.90;;;21.60;84.90;;;;;;5113947;28;20185;-85
2021/06/14 13:07:55;;;;;;;0.50;0.50;;;21.40;83.60;;;;;;5116138;28;20178;-85
2021/06/14 13:10:24;;;;;;;1.33;0.90;;;22.10;82.20;;;;;;5114378;28;20205;-85
2021/06/14 13:12:50;;;;;;;0.82;0.70;;;;;;;;;;5114958;28;20225;-83
2021/06/14 13:15:17;;;;;;;1.98;0.70;;;;;;;;;;5113982;28;20527;-84
2021/06/14 13:17:50;;;;;;;3.60;0.75;;;22.30;65.00;;;;;;5112600;28;20166;-83
2021/06/14 13:20:23;;;;;;;1.25;0.80;;;22.30;64.60;;;;;;5112549;28;20786;-83
2021/06/14 13:22:49;;;;;;;0.70;0.70;;;;;;;;;;5115423;28;20242;-83
2021/06/14 13:25:15;;;;;;;3.63;0.93;;;22.30;62.80;;;;;;5114036;28;20217;-83